createdAt,value
2023-11-06T00:02:21.964Z,96669.71
2023-11-06T00:04:53.942Z,96671.56
2023-11-06T00:07:25.861Z,96682.94
2023-11-06T00:09:58.592Z,96692.55
2023-11-06T00:12:32.194Z,96693.61
2023-11-06T00:15:04.044Z,96699.75
2023-11-06T00:17:36.145Z,96706.70
2023-11-06T00:20:11.855Z,96722.33
2023-11-06T00:22:44.521Z,96725.19
2023-11-06T00:25:16.885Z,96728.74
2023-11-06T00:27:49.290Z,96737.23
2023-11-06T00:30:21.372Z,96742.54
2023-11-06T00:32:53.283Z,96740.42
2023-11-06T00:35:25.228Z,96745.05
2023-11-06T00:37:57.123Z,96751.13
2023-11-06T00:40:29.151Z,96758.61
2023-11-06T00:43:01.439Z,96759.16
2023-11-06T00:45:33.353Z,96768.90
2023-11-06T00:48:05.744Z,96768.41
2023-11-06T00:50:37.609Z,96768.61
2023-11-06T00:53:10.297Z,96771.20
2023-11-06T00:55:43.336Z,96777.20
2023-11-06T00:58:17.553Z,96781.02
2023-11-06T01:00:49.533Z,96781.77
2023-11-06T01:03:22.365Z,96780.20
2023-11-06T01:05:54.286Z,96786.52
2023-11-06T01:08:26.176Z,96785.65
2023-11-06T01:10:58.038Z,96793.47
2023-11-06T01:13:30.285Z,96796.27
2023-11-06T01:16:02.860Z,96798.51
2023-11-06T01:18:34.856Z,96803.20
2023-11-06T01:21:07.450Z,96798.81
2023-11-06T01:23:39.893Z,96813.48
2023-11-06T01:26:11.799Z,96813.33
2023-11-06T01:28:43.741Z,96820.78
2023-11-06T01:31:16.405Z,96818.85
2023-11-06T01:33:48.352Z,96829.65
2023-11-06T01:36:20.518Z,96838.27
2023-11-06T01:38:52.368Z,96846.75
2023-11-06T01:41:24.860Z,96860.48
2023-11-06T01:43:57.362Z,96860.92
2023-11-06T01:46:29.747Z,96860.30
2023-11-06T01:49:02.569Z,96862.91
2023-11-06T01:51:37.192Z,96872.55
2023-11-06T01:54:11.348Z,96885.89
2023-11-06T01:56:44.720Z,96890.19
2023-11-06T01:59:18.437Z,96893.41
2023-11-06T02:01:51.812Z,96901.69
2023-11-06T02:04:23.719Z,96905.42
2023-11-06T02:06:55.643Z,96910.61
2023-11-06T02:09:29.264Z,96918.48
2023-11-06T02:12:02.085Z,96923.44
2023-11-06T02:14:49.387Z,96935.84
2023-11-06T02:17:21.461Z,96941.27
2023-11-06T02:19:53.669Z,96949.69
2023-11-06T02:22:26.312Z,96955.96
2023-11-06T02:24:58.998Z,96958.40
2023-11-06T02:27:30.808Z,96962.23
2023-11-06T02:30:03.157Z,96968.47
2023-11-06T02:32:35.791Z,96975.42
2023-11-06T02:35:09.298Z,96978.39
2023-11-06T02:37:42.099Z,96986.92
2023-11-06T02:40:15.167Z,96986.06
2023-11-06T02:42:47.017Z,96993.55
2023-11-06T02:45:19.132Z,97001.94
2023-11-06T02:47:51.618Z,97006.80
2023-11-06T02:50:23.591Z,97014.65
2023-11-06T02:52:56.384Z,97015.82
2023-11-06T02:55:28.225Z,97022.48
2023-11-06T02:58:01.945Z,97034.20
2023-11-06T03:00:33.818Z,97033.17
2023-11-06T03:03:05.830Z,97043.30
2023-11-06T03:05:38.326Z,97045.23
2023-11-06T03:08:10.389Z,97054.27
2023-11-06T03:10:42.235Z,97058.80
2023-11-06T03:13:14.188Z,97067.20
2023-11-06T03:15:46.120Z,97076.64
2023-11-06T03:18:18.032Z,97079.79
2023-11-06T03:20:49.934Z,97081.91
2023-11-06T03:23:21.808Z,97088.54
2023-11-06T03:25:53.751Z,97093.95
2023-11-06T03:28:25.558Z,97093.79
2023-11-06T03:30:57.349Z,97101.85
2023-11-06T03:33:29.292Z,97098.89
2023-11-06T03:36:05.328Z,97106.41
2023-11-06T03:38:37.137Z,97112.70
2023-11-06T03:41:09.231Z,97116.77
2023-11-06T03:43:41.160Z,97127.17
2023-11-06T03:46:12.964Z,97132.26
2023-11-06T03:48:44.816Z,97143.16
2023-11-06T03:51:16.660Z,97145.35
2023-11-06T03:53:48.513Z,97151.17
2023-11-06T03:56:20.473Z,97152.96
2023-11-06T03:58:52.462Z,97153.91
2023-11-06T04:01:24.399Z,97152.08
2023-11-06T04:04:01.058Z,97155.45
2023-11-06T04:06:33.213Z,97166.18
2023-11-06T04:09:05.714Z,97167.56
2023-11-06T04:11:39.015Z,97175.64
2023-11-06T04:14:11.017Z,97179.13
2023-11-06T04:16:43.279Z,97183.52
2023-11-06T04:19:15.095Z,97183.54
2023-11-06T04:21:46.937Z,97187.19
2023-11-06T04:24:18.916Z,97194.30
2023-11-06T04:26:50.708Z,97195.94
2023-11-06T04:29:22.558Z,97202.13
2023-11-06T04:31:54.402Z,97210.06
2023-11-06T04:34:26.202Z,97208.73
2023-11-06T04:36:58.014Z,97216.77
2023-11-06T04:39:29.805Z,97215.16
2023-11-06T04:42:01.638Z,97213.77
2023-11-06T04:44:33.438Z,97221.76
2023-11-06T04:47:05.680Z,97222.48
2023-11-06T04:49:37.627Z,97221.23
2023-11-06T04:52:09.612Z,97226.55
2023-11-06T04:54:44.040Z,97229.45
2023-11-06T04:57:15.993Z,97231.52
2023-11-06T04:59:47.871Z,97238.46
2023-11-06T05:02:20.625Z,97246.57
2023-11-06T05:04:52.691Z,97244.59
2023-11-06T05:07:25.143Z,97243.48
2023-11-06T05:09:56.946Z,97247.23
2023-11-06T05:12:28.756Z,97252.31
2023-11-06T05:15:01.794Z,97252.92
2023-11-06T05:17:34.102Z,97261.04
2023-11-06T05:20:10.684Z,97264.12
2023-11-06T05:22:43.170Z,97266.27
2023-11-06T05:25:15.047Z,97278.16
2023-11-06T05:27:46.848Z,97280.78
2023-11-06T05:30:18.794Z,97286.18
2023-11-06T05:32:50.742Z,97298.40
2023-11-06T05:35:22.868Z,97301.72
2023-11-06T05:37:54.745Z,97302.66
2023-11-06T05:40:26.620Z,97305.68
2023-11-06T05:42:58.407Z,97315.84
2023-11-06T05:45:30.231Z,97319.38
2023-11-06T05:48:02.106Z,97321.33
2023-11-06T05:50:35.244Z,97327.25
2023-11-06T05:53:07.651Z,97330.71
2023-11-06T05:55:40.298Z,97338.00
2023-11-06T05:58:12.104Z,97338.33
2023-11-06T06:00:43.914Z,97344.27
2023-11-06T06:03:17.169Z,97343.92
2023-11-06T06:05:49.607Z,97349.13
2023-11-06T06:08:22.151Z,97353.61
2023-11-06T06:10:54.147Z,97352.02
2023-11-06T06:13:26.390Z,97360.89
2023-11-06T06:15:58.145Z,97364.64
2023-11-06T06:18:30.175Z,97365.64
2023-11-06T06:21:02.075Z,97374.65
2023-11-06T06:23:33.968Z,97376.39
2023-11-06T06:26:06.311Z,97378.61
2023-11-06T06:28:38.805Z,97387.43
2023-11-06T06:31:10.617Z,97396.89
2023-11-06T06:33:42.678Z,97405.69
2023-11-06T06:36:15.300Z,97407.83
2023-11-06T06:38:47.349Z,97413.02
2023-11-06T06:41:19.454Z,97420.55
2023-11-06T06:43:51.241Z,97429.02
2023-11-06T06:46:23.102Z,97429.20
2023-11-06T06:48:54.945Z,97442.80
2023-11-06T06:51:26.777Z,97438.46
2023-11-06T06:53:58.684Z,97444.90
2023-11-06T06:56:32.689Z,97449.11
2023-11-06T06:59:04.560Z,97460.23
2023-11-06T07:01:36.379Z,97463.17
2023-11-06T07:04:08.655Z,97466.10
2023-11-06T07:06:40.717Z,97467.95
2023-11-06T07:09:12.561Z,97472.07
2023-11-06T07:11:44.675Z,97479.80
2023-11-06T07:14:16.533Z,97481.06
2023-11-06T07:16:49.457Z,97488.96
2023-11-06T07:19:21.359Z,97495.81
2023-11-06T07:21:53.214Z,97501.95
2023-11-06T07:24:27.180Z,97502.63
2023-11-06T07:26:59.207Z,97506.87
2023-11-06T07:29:31.112Z,97513.60
2023-11-06T07:32:02.958Z,97517.03
2023-11-06T07:34:34.856Z,97520.21
2023-11-06T07:37:06.834Z,97524.98
2023-11-06T07:39:38.990Z,97528.71
2023-11-06T07:42:12.348Z,97535.20
2023-11-06T07:44:44.223Z,97537.89
2023-11-06T07:47:16.152Z,97538.49
2023-11-06T07:49:48.200Z,97542.70
2023-11-06T07:52:20.259Z,97542.38
2023-11-06T07:54:52.244Z,97549.30
2023-11-06T07:57:24.953Z,97551.63
2023-11-06T07:59:57.605Z,97546.89
2023-11-06T08:02:30.164Z,97558.23
2023-11-06T08:05:02.181Z,97550.10
2023-11-06T08:07:34.161Z,97562.69
2023-11-06T08:10:06.863Z,97570.89
2023-11-06T08:12:38.795Z,97569.14
2023-11-06T08:15:13.225Z,97579.93
2023-11-06T08:17:45.101Z,97582.92
2023-11-06T08:20:17.138Z,97585.77
2023-11-06T08:22:49.024Z,97588.77
2023-11-06T08:25:20.951Z,97595.05
2023-11-06T08:27:53.813Z,97599.39
2023-11-06T08:30:25.707Z,97604.99
2023-11-06T08:32:57.607Z,97605.20
2023-11-06T08:35:29.727Z,97607.42
2023-11-06T08:38:03.444Z,97610.50
2023-11-06T08:40:35.829Z,97616.11
2023-11-06T08:43:07.774Z,97617.65
2023-11-06T08:45:39.595Z,97620.11
2023-11-06T08:48:11.467Z,97622.45
2023-11-06T08:50:43.460Z,97621.95
2023-11-06T08:53:15.297Z,97626.59
2023-11-06T08:55:48.176Z,97633.27
2023-11-06T08:58:20.315Z,97637.97
2023-11-06T09:00:52.299Z,97640.57
2023-11-06T09:03:24.854Z,97651.84
2023-11-06T09:05:56.916Z,97660.09
2023-11-06T09:08:28.837Z,97662.79
2023-11-06T09:11:00.838Z,97664.20
2023-11-06T09:13:37.094Z,97663.68
2023-11-06T09:16:10.622Z,97672.13
2023-11-06T09:18:42.485Z,97675.42
2023-11-06T09:21:15.120Z,97681.48
2023-11-06T09:23:47.264Z,97679.67
2023-11-06T09:26:20.380Z,97682.04
2023-11-06T09:28:53.827Z,97681.80
2023-11-06T09:31:25.766Z,97684.50
2023-11-06T09:33:57.934Z,97691.54
2023-11-06T09:36:29.747Z,97689.63
2023-11-06T09:39:01.616Z,97697.95
2023-11-06T09:44:12.574Z,97702.16
2023-11-06T09:46:44.659Z,97706.58
2023-11-06T09:49:18.815Z,97706.10
2023-11-06T09:51:54.754Z,97711.04
2023-11-06T09:54:26.698Z,97708.20
2023-11-06T09:56:59.028Z,97718.11
2023-11-06T09:59:30.923Z,97722.09
2023-11-06T10:02:06.082Z,97715.94
2023-11-06T10:04:38.625Z,97717.60
2023-11-06T10:07:11.013Z,97715.23
2023-11-06T10:09:42.975Z,97714.89
2023-11-06T10:12:19.400Z,97711.56
2023-11-06T10:14:51.976Z,97707.08
2023-11-06T10:17:26.418Z,97708.65
2023-11-06T10:20:10.264Z,97712.83
2023-11-06T10:22:56.397Z,97712.27
2023-11-06T10:25:33.797Z,97706.64
2023-11-06T10:28:19.788Z,97709.58
2023-11-06T10:30:52.938Z,97709.77
2023-11-06T10:33:25.549Z,97711.04
2023-11-06T10:35:58.569Z,97712.55
2023-11-06T10:38:32.344Z,97710.75
2023-11-06T10:41:25.490Z,97707.35
2023-11-06T10:44:01.227Z,97719.66
2023-11-06T10:46:35.870Z,97726.67
2023-11-06T10:49:12.856Z,97729.90
2023-11-06T10:51:45.617Z,97726.90
2023-11-06T10:54:23.118Z,97736.19
2023-11-06T10:56:58.538Z,97735.13
2023-11-06T10:59:33.686Z,97733.23
2023-11-06T11:02:07.262Z,97739.77
2023-11-06T11:04:41.244Z,97739.56
2023-11-06T11:07:13.277Z,97742.10
2023-11-06T11:09:45.660Z,97743.48
2023-11-06T11:12:17.856Z,97744.48
2023-11-06T11:14:49.680Z,97749.92
2023-11-06T11:17:21.541Z,97755.35
2023-11-06T11:20:05.308Z,97757.81
2023-11-06T11:23:09.000Z,97757.87
2023-11-06T11:26:01.079Z,97761.49
2023-11-06T11:28:58.317Z,97767.06
2023-11-06T11:31:41.684Z,97771.46
2023-11-06T11:34:29.199Z,97770.65
2023-11-06T11:37:01.947Z,97772.33
2023-11-06T11:39:33.740Z,97774.81
2023-11-06T11:42:26.835Z,97769.86
2023-11-06T11:45:08.993Z,97767.34
2023-11-06T11:47:57.160Z,97769.95
2023-11-06T11:50:45.055Z,97755.09
2023-11-06T11:53:35.597Z,97753.36
2023-11-06T11:56:45.340Z,97762.83
2023-11-06T11:59:17.852Z,97764.00
2023-11-06T12:01:49.814Z,97759.14
2023-11-06T12:04:25.572Z,97758.93
2023-11-06T12:07:07.555Z,97764.20
2023-11-06T12:09:50.217Z,97772.22
2023-11-06T12:12:24.707Z,97772.77
2023-11-06T12:14:58.007Z,97772.72
2023-11-06T12:17:32.105Z,97778.54
2023-11-06T12:20:10.202Z,97770.27
2023-11-06T12:22:51.730Z,97772.53
2023-11-06T12:25:34.298Z,97772.79
2023-11-06T12:28:11.701Z,97770.49
2023-11-06T12:30:44.967Z,97774.88
2023-11-06T12:33:18.446Z,97782.97
2023-11-06T12:35:52.500Z,97785.17
2023-11-06T12:38:37.660Z,97787.53
2023-11-06T12:41:09.932Z,97788.29
2023-11-06T12:43:43.737Z,97783.45
2023-11-06T12:46:16.317Z,97789.64
2023-11-06T12:48:52.425Z,97791.95
2023-11-06T12:51:23.489Z,97785.96
2023-11-06T12:53:55.294Z,97792.75
2023-11-06T12:56:28.931Z,97793.53
2023-11-06T12:59:01.284Z,97800.52
2023-11-06T13:01:35.344Z,97808.27
2023-11-06T13:04:08.540Z,97813.14
2023-11-06T13:06:41.826Z,97814.60
2023-11-06T13:09:15.228Z,97819.98
2023-11-06T13:11:47.294Z,97821.59
2023-11-06T13:14:19.467Z,97826.95
2023-11-06T13:16:51.550Z,97830.66
2023-11-06T13:19:29.745Z,97833.45
2023-11-06T13:22:01.981Z,97836.59
2023-11-06T13:24:34.906Z,97841.37
2023-11-06T13:27:06.764Z,97845.17
2023-11-06T13:29:39.989Z,97842.39
2023-11-06T13:32:11.948Z,97844.09
2023-11-06T13:34:43.813Z,97850.86
2023-11-06T13:37:15.811Z,97860.17
2023-11-06T13:39:50.611Z,97858.76
2023-11-06T13:42:22.468Z,97861.57
2023-11-06T13:44:54.334Z,97861.75
2023-11-06T13:47:26.134Z,97868.52
2023-11-06T13:49:57.999Z,97868.10
2023-11-06T13:52:43.147Z,97872.91
2023-11-06T13:55:16.527Z,97875.69
2023-11-06T13:57:48.337Z,97882.73
2023-11-06T14:00:33.713Z,97886.02
2023-11-06T14:03:06.754Z,97890.61
2023-11-06T14:05:45.827Z,97898.38
2023-11-06T14:08:20.465Z,97897.36
2023-11-06T14:10:52.880Z,97904.58
2023-11-06T14:13:25.198Z,97911.76
2023-11-06T14:15:57.828Z,97907.96
2023-11-06T14:18:30.092Z,97907.27
2023-11-06T14:21:01.968Z,97908.42
2023-11-06T14:23:34.165Z,97910.82
2023-11-06T14:26:08.636Z,97913.55
2023-11-06T14:28:40.507Z,97913.31
2023-11-06T14:31:12.314Z,97925.92
2023-11-06T14:33:44.629Z,97920.95
2023-11-06T14:36:16.545Z,97920.19
2023-11-06T14:38:48.330Z,97923.70
2023-11-06T14:41:20.206Z,97925.27
2023-11-06T14:43:54.369Z,97926.77
2023-11-06T14:46:26.604Z,97927.23
2023-11-06T14:49:05.206Z,97932.19
2023-11-06T14:51:38.182Z,97940.59
2023-11-06T14:54:10.520Z,97944.29
2023-11-06T14:56:46.244Z,97946.54
2023-11-06T14:59:18.768Z,97942.59
2023-11-06T15:01:51.226Z,97944.95
2023-11-06T15:04:24.934Z,97947.59
2023-11-06T15:06:57.970Z,97948.36
2023-11-06T15:09:29.859Z,97951.33
2023-11-06T15:12:02.341Z,97953.08
2023-11-06T15:14:34.636Z,97961.20
2023-11-06T15:19:47.390Z,97969.87
2023-11-06T15:22:20.897Z,97976.95
2023-11-06T15:24:52.647Z,97977.77
2023-11-06T15:27:24.379Z,97980.46
2023-11-06T15:29:56.389Z,97985.63
2023-11-06T15:32:28.630Z,97986.81
2023-11-06T15:35:00.496Z,97984.84
2023-11-06T15:37:32.292Z,97983.86
2023-11-06T15:40:05.697Z,97986.06
2023-11-06T15:42:37.571Z,97993.02
2023-11-06T15:45:11.631Z,97990.20
2023-11-06T15:47:43.468Z,97993.55
2023-11-06T15:50:15.692Z,97998.64
2023-11-06T15:52:47.687Z,98004.25
2023-11-06T15:55:19.655Z,98011.24
2023-11-06T15:57:51.389Z,98014.36
2023-11-06T16:00:23.731Z,98018.20
2023-11-06T16:02:55.578Z,98018.70
2023-11-06T16:05:29.108Z,98020.30
2023-11-06T16:08:02.049Z,98025.22
2023-11-06T16:10:35.134Z,98028.35
2023-11-06T16:13:07.114Z,98028.86
2023-11-06T16:15:39.542Z,98031.23
2023-11-06T16:18:11.444Z,98033.08
2023-11-06T16:20:43.897Z,98034.89
2023-11-06T16:23:15.747Z,98037.23
2023-11-06T16:25:47.562Z,98035.08
2023-11-06T16:28:19.315Z,98039.91
2023-11-06T16:30:51.129Z,98044.05
2023-11-06T16:33:23.007Z,98045.70
2023-11-06T16:35:54.935Z,98051.54
2023-11-06T16:38:26.791Z,98053.19
2023-11-06T16:40:58.831Z,98057.80
2023-11-06T16:43:31.059Z,98062.59
2023-11-06T16:46:02.826Z,98066.05
2023-11-06T16:48:34.707Z,98065.64
2023-11-06T16:51:07.167Z,98074.30
2023-11-06T16:53:40.091Z,98076.15
2023-11-06T16:56:17.064Z,98076.48
2023-11-06T16:58:49.593Z,98080.19
2023-11-06T17:01:24.028Z,98080.25
2023-11-06T17:03:56.084Z,98081.23
2023-11-06T17:06:29.300Z,98088.63
2023-11-06T17:09:02.519Z,98089.40
2023-11-06T17:11:34.407Z,98093.65
2023-11-06T17:14:06.335Z,98097.19
2023-11-06T17:16:38.742Z,98097.44
2023-11-06T17:19:10.980Z,98098.21
2023-11-06T17:21:43.095Z,98104.73
2023-11-06T17:24:15.021Z,98105.30
2023-11-06T17:26:47.107Z,98107.91
2023-11-06T17:29:19.205Z,98106.56
2023-11-06T17:31:50.991Z,98111.17
2023-11-06T17:34:23.739Z,98117.30
2023-11-06T17:36:55.806Z,98124.70
2023-11-06T17:39:27.661Z,98119.20
2023-11-06T17:41:59.471Z,98127.26
2023-11-06T17:44:31.319Z,98131.17
2023-11-06T17:47:03.425Z,98138.21
2023-11-06T17:49:35.255Z,98139.48
2023-11-06T17:52:08.079Z,98145.98
2023-11-06T17:54:39.877Z,98151.27
2023-11-06T17:57:12.677Z,98158.65
2023-11-06T17:59:44.744Z,98155.58
2023-11-06T18:02:17.195Z,98161.91
2023-11-06T18:04:49.096Z,98158.83
2023-11-06T18:07:21.263Z,98161.50
2023-11-06T18:09:53.064Z,98164.66
2023-11-06T18:12:24.870Z,98169.27
2023-11-06T18:14:56.646Z,98173.53
2023-11-06T18:17:28.567Z,98175.52
2023-11-06T18:20:03.609Z,98175.92
2023-11-06T18:22:35.600Z,98178.78
2023-11-06T18:25:09.770Z,98182.55
2023-11-06T18:27:42.099Z,98187.70
2023-11-06T18:30:15.447Z,98192.30
2023-11-06T18:32:47.363Z,98191.52
2023-11-06T18:35:20.442Z,98188.80
2023-11-06T18:37:52.489Z,98192.85
2023-11-06T18:40:25.966Z,98197.45
2023-11-06T18:42:57.782Z,98197.16
2023-11-06T18:45:29.863Z,98199.84
2023-11-06T18:48:01.868Z,98204.62
2023-11-06T18:50:34.052Z,98204.71
2023-11-06T18:53:10.219Z,98206.91
2023-11-06T18:55:42.337Z,98203.66
2023-11-06T18:58:14.674Z,98206.21
2023-11-06T19:00:46.461Z,98209.42
2023-11-06T19:03:18.397Z,98208.48
2023-11-06T19:05:51.826Z,98215.55
2023-11-06T19:08:25.401Z,98219.48
2023-11-06T19:10:57.626Z,98224.67
2023-11-06T19:13:29.460Z,98230.35
2023-11-06T19:16:01.255Z,98230.77
2023-11-06T19:18:33.553Z,98237.09
2023-11-06T19:21:05.660Z,98238.88
2023-11-06T19:23:37.834Z,98239.12
2023-11-06T19:26:09.950Z,98243.55
2023-11-06T19:28:42.533Z,98247.07
2023-11-06T19:31:14.757Z,98248.15
2023-11-06T19:33:48.537Z,98250.13
2023-11-06T19:36:20.450Z,98254.05
2023-11-06T19:38:52.336Z,98259.49
2023-11-06T19:41:24.204Z,98261.69
2023-11-06T19:43:56.058Z,98260.36
2023-11-06T19:46:27.972Z,98259.71
2023-11-06T19:48:59.896Z,98258.77
2023-11-06T19:51:32.833Z,98257.14
2023-11-06T19:54:04.760Z,98261.06
2023-11-06T19:56:38.908Z,98259.56
2023-11-06T19:59:27.970Z,98262.63
2023-11-06T20:02:02.566Z,98265.48
2023-11-06T20:04:34.422Z,98270.46
2023-11-06T20:07:06.542Z,98270.70
2023-11-06T20:09:39.101Z,98267.11
2023-11-06T20:12:11.495Z,98262.63
2023-11-06T20:14:43.343Z,98263.75
2023-11-06T20:17:15.196Z,98266.08
2023-11-06T20:19:47.017Z,98273.92
2023-11-06T20:22:18.784Z,98273.80
2023-11-06T20:24:50.572Z,98274.72
2023-11-06T20:27:22.868Z,98274.58
2023-11-06T20:29:54.785Z,98278.09
2023-11-06T20:32:26.731Z,98279.70
2023-11-06T20:34:58.958Z,98276.25
2023-11-06T20:37:31.927Z,98276.11
2023-11-06T20:40:04.008Z,98275.23
2023-11-06T20:42:36.586Z,98281.03
2023-11-06T20:45:11.068Z,98282.48
2023-11-06T20:47:42.969Z,98287.38
2023-11-06T20:50:14.818Z,98289.81
2023-11-06T20:52:47.083Z,98287.75
2023-11-06T20:55:18.983Z,98286.38
2023-11-06T20:57:51.486Z,98285.86
2023-11-06T21:00:24.168Z,98284.83
2023-11-06T21:02:56.609Z,98287.62
2023-11-06T21:05:28.580Z,98289.55
2023-11-06T21:08:00.762Z,98287.11
2023-11-06T21:10:32.619Z,98290.09
2023-11-06T21:13:04.465Z,98293.24
2023-11-06T21:15:36.386Z,98299.00
2023-11-06T21:18:08.593Z,98303.39
2023-11-06T21:20:40.413Z,98311.41
2023-11-06T21:23:12.234Z,98310.75
2023-11-06T21:25:44.208Z,98313.02
2023-11-06T21:28:16.149Z,98310.23
2023-11-06T21:30:47.982Z,98314.93
2023-11-06T21:33:19.900Z,98320.52
2023-11-06T21:35:52.064Z,98325.23
2023-11-06T21:38:24.244Z,98324.02
2023-11-06T21:40:56.029Z,98321.07
2023-11-06T21:43:27.812Z,98322.46
2023-11-06T21:46:02.708Z,98324.90
2023-11-06T21:48:35.509Z,98320.73
2023-11-06T21:51:10.790Z,98316.90
2023-11-06T21:53:42.637Z,98317.77
2023-11-06T21:56:14.389Z,98315.72
2023-11-06T21:58:47.631Z,98313.31
2023-11-06T22:01:23.757Z,98319.27
2023-11-06T22:03:55.603Z,98316.15
2023-11-06T22:06:27.971Z,98316.19
2023-11-06T22:09:01.227Z,98317.96
2023-11-06T22:11:33.094Z,98319.55
2023-11-06T22:14:06.844Z,98324.45
2023-11-06T22:16:38.635Z,98330.21
2023-11-06T22:19:10.630Z,98332.50
2023-11-06T22:21:43.486Z,98336.34
2023-11-06T22:24:15.357Z,98337.05
2023-11-06T22:26:48.067Z,98340.36
2023-11-06T22:29:20.037Z,98342.27
2023-11-06T22:31:51.867Z,98346.09
2023-11-06T22:34:23.779Z,98345.92
2023-11-06T22:36:55.647Z,98343.50
2023-11-06T22:39:27.512Z,98344.20
2023-11-06T22:42:00.103Z,98346.98
2023-11-06T22:44:31.954Z,98351.67
2023-11-06T22:47:04.324Z,98351.69
2023-11-06T22:49:36.118Z,98354.48
2023-11-06T22:52:09.284Z,98355.02
2023-11-06T22:54:42.759Z,98357.98
2023-11-06T22:57:14.592Z,98357.13
2023-11-06T22:59:46.624Z,98355.23
2023-11-06T23:02:19.600Z,98357.14
2023-11-06T23:04:51.505Z,98358.17
2023-11-06T23:07:24.983Z,98356.60
2023-11-06T23:09:56.850Z,98349.14
2023-11-06T23:12:28.621Z,98355.21
2023-11-06T23:15:01.000Z,98353.32
2023-11-06T23:17:33.617Z,98352.32
2023-11-06T23:20:05.968Z,98351.64
2023-11-06T23:22:37.812Z,98354.44
2023-11-06T23:25:13.002Z,98352.05
2023-11-06T23:27:46.225Z,98353.61
2023-11-06T23:30:18.343Z,98358.84
2023-11-06T23:32:50.632Z,98364.42
2023-11-06T23:35:22.595Z,98360.44
2023-11-06T23:37:54.358Z,98363.91
2023-11-06T23:40:27.788Z,98362.02
2023-11-06T23:43:00.530Z,98371.90
2023-11-06T23:45:32.375Z,98365.47
2023-11-06T23:48:04.712Z,98369.27
2023-11-06T23:50:36.651Z,98368.41
2023-11-06T23:53:08.554Z,98359.22
2023-11-06T23:55:40.344Z,98359.20
2023-11-06T23:58:12.166Z,98359.21
